Weather observations for the past three days for
Kalispell, Glacier Park International Airport
Imperial (Metric)
Date Time (mdt) Wind (mph) Vis. (mi.) Weather Sky Cond. Temperature (ºF) Relative Humidity Wind Chill (°F) Heat Index (°F) Pressure Precipitation (in)
Air Dwpt 6 hour altimeter (in) sea level (mb) 1 hr 3 hr 6 hr
Max. Min.
02 12:55 S 15 G 24 10.00 Fair CLR 73.9 48 40% 29.72 1004.4
02 11:55 SW 6 10.00 Fair CLR 72 48 72 46.9 43% 29.72 1004.2
02 10:55 Calm 10.00 Fair CLR 68 48.9 51% 29.72 1004.5
02 09:55 Calm 10.00 Fair CLR 66 51.1 59% 29.72 1004.8
02 08:55 NE 3 10.00 Fair CLR 60.1 51.1 72% 29.74 1005.5
02 07:55 Calm 10.00 Fair CLR 54 48 80% 29.75 1006.3
02 06:55 Calm 10.00 Fair CLR 48 44.1 86% 29.76 1006.3
02 05:55 N 3 10.00 Fair CLR 51.1 46.9 69.1 50 86% 29.76 1006.3
02 04:55 Calm 10.00 Fair CLR 53.1 46.9 80% 29.77 1006.6
02 03:55 Calm 10.00 Fair CLR 57 48 72% 29.78 1006.4
02 02:55 Calm 10.00 A Few Clouds FEW120 57.9 48 70% 29.79 1007.0
02 01:55 Calm 10.00 Fair CLR 61 48 63% 29.79 1007.0
02 00:55 Calm 10.00 A Few Clouds FEW110 64.9 46 51% 29.8 1007.2
01 23:55 S 8 10.00 Fair CLR 69.1 45 82 68 42% 29.8 1007.1
01 22:55 SE 10 10.00 Fair CLR 69.1 46.9 45% 29.82 1008.3
01 21:55 Calm 10.00 Mostly Cloudy BKN110 70 44.1 39% 29.82 1008.4
01 20:55 SW 5 10.00 Fair CLR 73.9 39.9 29% 29.8 1007.6
01 19:55 S 7 10.00 Fair CLR 72 50 46% 29.75 1006.4
01 18:55 Calm 10.00 Fair CLR 81 39.9 23% 79 29.72 1005.5
01 17:55 NE 3 10.00 Fair CLR 82 36 84 69.1 19% 80 29.74 1005.9
01 16:55 NE 6 10.00 Fair CLR 82.9 37 19% 80 29.75 1006.1
01 15:55 Calm 10.00 Fair CLR 81 37.9 21% 79 29.77 1007.3
01 14:55 Calm 10.00 Fair CLR 80.1 43 27% 79 29.8 1008.1
01 13:55 Vrbl 3 10.00 Fair CLR 75.9 43 31% 77 29.83 1009.4
01 12:55 Vrbl 5 10.00 Fair CLR 73 43 34% 29.86 1010.4
01 11:55 NE 9 10.00 Fair CLR 70 42.1 70 43 37% 29.89 1011.4
01 10:55 E 7 10.00 Fair CLR 64.9 44.1 47% 29.9 1012.1
01 09:55 NE 10 10.00 Fair CLR 62.1 43 50% 29.91 1012.3
01 07:55 N 6 10.00 Fair CLR 48.9 45 86% 47 29.91 1012.1
01 06:55 W 6 10.00 Fair CLR 43 41 93% 40 29.89 1011.7
01 05:55 W 6 10.00 Fair CLR 44.1 41 50 41 89% 41 29.9 1011.6
01 04:55 NW 5 10.00 Fair CLR 46 43 89% 44 29.89 1011.4
01 03:55 Calm 10.00 Fair CLR 42.1 39.9 92% 29.9 1012.0
01 02:55 NE 3 10.00 Fair CLR 45 42.1 90% 29.9 1011.8
01 01:55 SW 3 10.00 Fair CLR 44.1 39.9 85% 29.9 1012.2
01 00:55 Calm 10.00 Fair CLR 46 41 83% 29.91 1012.2
31 23:55 Calm 10.00 Fair CLR 48 42.1 75 46.9 80% 29.92 1012.6
31 22:55 N 3 10.00 Fair CLR 51.1 43 74% 29.92 1012.9
31 21:55 Calm 10.00 Fair CLR 54 43 67% 29.93 1013.2
31 20:55 NW 3 10.00 Fair CLR 55.9 43 62% 29.92 1012.8
31 19:55 Calm 10.00 Fair CLR 70 41 35% 29.92 1012.4
31 18:55 Vrbl 3 10.00 Fair CLR 73.9 37.9 27% 29.93 1012.6
31 17:55 S 9 10.00 Fair CLR 75.9 39 75.9 66 26% 77 29.94 1012.9
31 16:55 S 8 10.00 Fair CLR 75 37.9 26% 77 29.96 1013.5
31 15:55 Vrbl 6 10.00 Fair CLR 73 39.9 30% 29.97 1014.1
31 14:55 S 7 10.00 Fair CLR 72 39.9 31% 30 1015.0
31 13:55 S 5 10.00 Fair CLR 70 39.9 34% 30.02 1015.8
31 12:55 Vrbl 5 10.00 Fair CLR 69.1 39.9 35% 30.04 1016.6
31 11:55 Vrbl 5 10.00 Fair CLR 66.9 39.9 66.9 50 37% 30.06 1017.4
31 10:55 SE 7 10.00 Fair CLR 63 42.1 47% 30.07 1017.9
31 09:55 Vrbl 5 10.00 Fair CLR 59 44.1 58% 30.08 1018.5
31 08:55 Calm 10.00 Fair CLR 55 45 69% 30.08 1018.6
31 07:55 Calm 10.00 Overcast OVC060 52 48.9 89% 30.07 1018.1
31 06:55 Calm 10.00 Overcast OVC065 51.1 48 89% 30.05 1017.5
31 05:55 Calm 10.00 Overcast OVC065 52 48 53.1 51.1 86% 30.05 1017.4
31 04:55 Calm 10.00 Overcast OVC065 51.1 48.9 92% 30.04 1017.3
31 03:55 N 3 10.00 Overcast OVC060 51.1 48 89% 30.04 1017.2
31 02:55 Calm 10.00 Overcast OVC065 52 48 86% 30.03 1016.9
31 01:55 E 5 10.00 Overcast OVC070 53.1 48.9 86% 30.03 1017.0
31 00:55 Calm 10.00 Overcast OVC070 53.1 46.9 80% 30.02 1017.0
30 23:55 Calm 10.00 Overcast OVC070 53.1 46.9 60.1 52 80% 30.04 1017.3
30 22:55 N 3 10.00 Overcast OVC065 53.1 48 83% 30.04 1017.2
30 21:55 N 5 10.00 Overcast OVC070 53.1 48 83% 30.03 1017.0
30 20:55 N 5 10.00 Overcast OVC075 54 48 80% 30.02 1016.6
30 19:55 NE 7 10.00 Overcast OVC070 55.9 46.9 72% 30.01 1016.0
30 18:55 NE 7 10.00 Overcast OVC070 60.1 46 60% 30 1015.5
30 17:55 E 6 10.00 Overcast BKN065 OVC080 57.9 43 57.9 51.1 58% 30 1015.8
30 16:55 NE 7 10.00 Mostly Cloudy BKN065 BKN080 57 45 64% 30.01 1016.0
30 15:55 N 8 10.00 Overcast OVC060 55 46.9 74% 30.01 1015.9
30 14:55 NE 7 10.00 Overcast BKN055 OVC070 55 46.9 74% 30.01 1016.1
30 13:55 N 7 10.00 Overcast OVC060 53.1 46 77% 30.01 1016.5
Date Time (mdt) Wind (mph) Vis. (mi.) Weather Sky Cond. Air Dwpt Max. Min. Relative Humidity Wind Chill (°F) Heat Index (°F) altimeter (in) sea level (mb) 1 hr 3 hr 6 hr
6 hour
Temperature (ºF) Pressure Precipitation (in)